createdAt,value
2018-09-17T00:01:12.027Z,6.65
2018-09-17T00:03:39.252Z,7.00
2018-09-17T00:06:06.483Z,6.95
2018-09-17T00:08:33.722Z,7.42
2018-09-17T00:11:00.941Z,7.40
2018-09-17T00:13:28.191Z,7.55
2018-09-17T00:15:55.377Z,7.15
2018-09-17T00:18:22.589Z,7.17
2018-09-17T00:20:49.816Z,6.65
2018-09-17T00:23:17.011Z,7.00
2018-09-17T00:25:44.205Z,6.95
2018-09-17T00:28:11.442Z,7.70
2018-09-17T00:30:38.651Z,7.03
2018-09-17T00:33:05.904Z,6.78
2018-09-17T00:35:33.128Z,7.83
2018-09-17T00:38:00.326Z,7.00
2018-09-17T00:40:27.515Z,7.53
2018-09-17T00:42:54.737Z,7.55
2018-09-17T00:45:21.947Z,6.90
2018-09-17T00:47:49.191Z,7.15
2018-09-17T00:50:16.603Z,7.45
2018-09-17T00:52:44.060Z,7.30
2018-09-17T00:55:11.270Z,7.47
2018-09-17T00:57:38.565Z,7.35
2018-09-17T01:00:06.480Z,6.75
2018-09-17T01:02:33.692Z,7.47
2018-09-17T01:05:00.939Z,6.60
2018-09-17T01:07:28.179Z,6.62
2018-09-17T01:09:55.387Z,6.90
2018-09-17T01:12:22.616Z,6.28
2018-09-17T01:14:50.067Z,7.03
2018-09-17T01:17:17.260Z,7.03
2018-09-17T01:19:44.531Z,6.87
2018-09-17T01:22:11.767Z,6.70
2018-09-17T01:24:38.984Z,7.08
2018-09-17T01:27:06.303Z,8.13
2018-09-17T01:29:33.551Z,6.40
2018-09-17T01:32:00.814Z,7.10
2018-09-17T01:34:28.055Z,7.72
2018-09-17T01:36:55.274Z,6.67
2018-09-17T01:39:22.483Z,7.53
2018-09-17T01:41:49.688Z,7.85
2018-09-17T01:44:16.918Z,7.75
2018-09-17T01:46:44.135Z,7.28
2018-09-17T01:49:11.343Z,8.90
2018-09-17T01:51:39.053Z,7.25
2018-09-17T01:54:06.258Z,7.95
2018-09-17T01:56:33.618Z,7.12
2018-09-17T01:59:00.857Z,7.17
2018-09-17T02:01:28.083Z,7.20
2018-09-17T02:03:55.299Z,6.78
2018-09-17T02:06:22.516Z,7.50
2018-09-17T02:08:49.903Z,7.58
2018-09-17T02:11:17.099Z,6.65
2018-09-17T02:13:44.315Z,6.87
2018-09-17T02:16:11.555Z,7.65
2018-09-17T02:18:38.783Z,7.45
2018-09-17T02:21:06.007Z,6.70
2018-09-17T02:23:33.257Z,6.67
2018-09-17T02:26:00.466Z,6.12
2018-09-17T02:28:27.995Z,7.03
2018-09-17T02:30:55.247Z,8.38
2018-09-17T02:33:22.466Z,6.37
2018-09-17T02:35:49.690Z,6.50
2018-09-17T02:38:16.936Z,6.50
2018-09-17T02:40:44.136Z,6.40
2018-09-17T02:43:11.373Z,6.00
2018-09-17T02:45:38.592Z,6.08
2018-09-17T02:48:05.789Z,6.15
2018-09-17T02:50:33.028Z,7.15
2018-09-17T02:53:00.252Z,6.05
2018-09-17T02:55:27.505Z,7.03
2018-09-17T02:57:54.713Z,6.22
2018-09-17T03:00:21.926Z,6.08
2018-09-17T03:02:49.765Z,6.55
2018-09-17T03:05:17.802Z,5.35
2018-09-17T03:07:45.099Z,5.90
2018-09-17T03:10:12.338Z,6.10
2018-09-17T03:12:39.883Z,6.10
2018-09-17T03:15:12.776Z,5.90
2018-09-17T03:17:40.061Z,5.50
2018-09-17T03:20:07.289Z,5.42
2018-09-17T03:22:34.567Z,6.60
2018-09-17T03:25:01.766Z,6.47
2018-09-17T03:27:28.988Z,5.65
2018-09-17T03:29:56.237Z,7.10
2018-09-17T03:32:23.446Z,8.05
2018-09-17T03:34:50.655Z,6.97
2018-09-17T03:37:17.892Z,6.40
2018-09-17T03:39:45.132Z,7.17
2018-09-17T03:42:12.355Z,7.20
2018-09-17T03:44:39.576Z,7.40
2018-09-17T03:47:06.803Z,7.00
2018-09-17T03:49:34.046Z,6.67
2018-09-17T03:52:01.319Z,6.55
2018-09-17T03:54:28.559Z,6.58
2018-09-17T03:56:55.776Z,7.30
2018-09-17T03:59:22.998Z,5.97
2018-09-17T04:01:50.242Z,6.25
2018-09-17T04:04:17.435Z,6.40
2018-09-17T04:06:44.662Z,6.33
2018-09-17T04:09:11.935Z,6.50
2018-09-17T04:11:39.129Z,7.03
2018-09-17T04:14:07.183Z,7.50
2018-09-17T04:16:34.412Z,6.53
2018-09-17T04:19:01.691Z,6.30
2018-09-17T04:21:31.415Z,7.20
2018-09-17T04:23:58.775Z,7.50
2018-09-17T04:26:26.026Z,6.90
2018-09-17T04:28:53.267Z,7.55
2018-09-17T04:31:20.463Z,6.28
2018-09-17T04:33:47.704Z,6.62
2018-09-17T04:36:14.907Z,7.17
2018-09-17T04:38:42.135Z,7.20
2018-09-17T04:41:09.348Z,7.35
2018-09-17T04:43:36.556Z,6.60
2018-09-17T04:46:03.782Z,6.30
2018-09-17T04:48:31.082Z,6.45
2018-09-17T04:50:58.298Z,6.45
2018-09-17T04:53:25.515Z,6.47
2018-09-17T04:55:52.740Z,7.30
2018-09-17T04:58:20.178Z,6.40
2018-09-17T05:00:47.488Z,6.28
2018-09-17T05:03:14.706Z,7.55
2018-09-17T05:05:41.930Z,9.88
2018-09-17T05:08:09.135Z,7.87
2018-09-17T05:10:36.355Z,7.95
2018-09-17T05:13:03.669Z,6.72
2018-09-17T05:15:30.847Z,6.50
2018-09-17T05:17:58.079Z,7.58
2018-09-17T05:20:25.365Z,6.35
2018-09-17T05:22:52.604Z,7.33
2018-09-17T05:25:19.838Z,6.47
2018-09-17T05:27:47.083Z,6.55
2018-09-17T05:30:14.310Z,7.20
2018-09-17T05:32:41.523Z,6.53
2018-09-17T05:35:08.844Z,6.62
2018-09-17T05:37:36.038Z,6.80
2018-09-17T05:40:03.288Z,6.92
2018-09-17T05:42:30.539Z,7.00
2018-09-17T05:44:57.745Z,6.25
2018-09-17T05:47:24.966Z,6.92
2018-09-17T05:49:52.412Z,6.75
2018-09-17T05:52:19.615Z,6.90
2018-09-17T05:54:46.872Z,6.30
2018-09-17T05:57:14.197Z,6.97
2018-09-17T05:59:41.533Z,7.08
2018-09-17T06:02:08.733Z,6.62
2018-09-17T06:04:35.987Z,7.03
2018-09-17T06:07:03.291Z,6.45
2018-09-17T06:09:30.573Z,6.83
2018-09-17T06:11:57.950Z,8.08
2018-09-17T06:14:25.191Z,6.60
2018-09-17T06:16:52.490Z,6.22
2018-09-17T06:19:19.741Z,8.30
2018-09-17T06:21:47.032Z,7.87
2018-09-17T06:24:14.250Z,8.00
2018-09-17T06:26:41.594Z,7.33
2018-09-17T06:29:08.754Z,7.25
2018-09-17T06:31:35.997Z,7.23
2018-09-17T06:34:03.292Z,6.70
2018-09-17T06:36:30.609Z,7.50
2018-09-17T06:38:57.866Z,6.60
2018-09-17T06:41:25.250Z,7.00
2018-09-17T06:43:52.481Z,8.30
2018-09-17T06:46:19.725Z,7.40
2018-09-17T06:48:47.109Z,7.67
2018-09-17T06:51:14.403Z,7.40
2018-09-17T06:53:41.739Z,7.70
2018-09-17T06:56:08.928Z,7.67
2018-09-17T06:58:36.219Z,6.80
2018-09-17T07:01:03.469Z,8.10
2018-09-17T07:03:30.737Z,7.37
2018-09-17T07:05:58.049Z,7.27
2018-09-17T07:08:25.250Z,8.30
2018-09-17T07:10:52.510Z,7.13
2018-09-17T07:13:19.763Z,7.70
2018-09-17T07:15:47.002Z,8.60
2018-09-17T07:18:14.256Z,7.83
2018-09-17T07:20:41.700Z,8.10
2018-09-17T07:23:08.964Z,8.10
2018-09-17T07:25:36.207Z,7.63
2018-09-17T07:28:03.484Z,7.70
2018-09-17T07:30:30.970Z,7.93
2018-09-17T07:32:58.935Z,8.37
2018-09-17T07:35:26.229Z,8.20
2018-09-17T07:37:53.490Z,8.00
2018-09-17T07:40:21.110Z,8.07
2018-09-17T07:42:48.378Z,9.77
2018-09-17T07:45:15.628Z,10.77
2018-09-17T07:47:42.857Z,10.20
2018-09-17T07:50:10.190Z,10.70
2018-09-17T07:52:37.444Z,11.37
2018-09-17T07:55:04.713Z,10.03
2018-09-17T07:57:31.969Z,10.13
2018-09-17T07:59:59.270Z,10.67
2018-09-17T08:02:27.854Z,9.47
2018-09-17T08:04:55.660Z,10.37
2018-09-17T08:07:23.626Z,8.27
2018-09-17T08:09:51.353Z,9.07
2018-09-17T08:12:19.055Z,7.87
2018-09-17T08:14:46.983Z,8.50
2018-09-17T08:17:15.712Z,7.23
2018-09-17T08:19:43.480Z,6.80
2018-09-17T08:22:11.491Z,6.80
2018-09-17T08:24:39.318Z,7.37
2018-09-17T08:27:07.136Z,7.13
2018-09-17T08:29:35.806Z,7.40
2018-09-17T08:32:04.747Z,7.10
2018-09-17T08:34:32.746Z,6.53
2018-09-17T08:37:00.754Z,7.40
2018-09-17T08:39:28.902Z,6.27
2018-09-17T08:41:57.257Z,6.00
2018-09-17T08:44:25.022Z,7.00
2018-09-17T08:46:52.887Z,7.10
2018-09-17T08:49:27.419Z,5.80
2018-09-17T08:51:55.539Z,6.47
2018-09-17T08:54:23.315Z,5.20
2018-09-17T08:56:56.636Z,5.70
2018-09-17T08:59:29.745Z,5.90
2018-09-17T09:03:02.717Z,5.70
2018-09-17T09:05:34.628Z,5.53
2018-09-17T09:08:02.215Z,5.97
2018-09-17T09:10:35.686Z,6.37
2018-09-17T09:13:09.032Z,6.00
2018-09-17T09:15:44.423Z,6.00
2018-09-17T09:18:12.304Z,5.77
2018-09-17T09:20:40.494Z,6.27
2018-09-17T09:23:09.042Z,6.00
2018-09-17T09:25:36.732Z,5.67
2018-09-17T09:28:04.592Z,5.60
2018-09-17T09:30:33.081Z,6.13
2018-09-17T09:33:01.311Z,5.40
2018-09-17T09:35:29.217Z,4.63
2018-09-17T09:37:58.312Z,4.30
2018-09-17T09:40:28.198Z,4.87
2018-09-17T09:43:00.587Z,4.60
2018-09-17T09:45:35.769Z,4.87
2018-09-17T09:48:04.696Z,5.30
2018-09-17T09:50:34.884Z,5.10
2018-09-17T09:53:06.955Z,5.77
2018-09-17T09:55:37.667Z,5.10
2018-09-17T09:58:09.050Z,4.63
2018-09-17T10:00:44.752Z,5.60
2018-09-17T10:03:18.963Z,5.03
2018-09-17T10:05:50.054Z,4.93
2018-09-17T10:08:22.863Z,5.10
2018-09-17T10:10:57.087Z,4.33
2018-09-17T10:13:32.349Z,4.73
2018-09-17T10:16:08.148Z,5.20
2018-09-17T10:18:43.718Z,4.43
2018-09-17T10:21:14.740Z,5.07
2018-09-17T10:23:49.732Z,4.60
2018-09-17T10:26:21.136Z,4.80
2018-09-17T10:28:48.807Z,3.77
2018-09-17T10:31:16.661Z,4.83
2018-09-17T10:33:44.341Z,4.60
2018-09-17T10:36:12.410Z,4.47
2018-09-17T10:38:40.427Z,4.53
2018-09-17T10:41:09.429Z,4.67
2018-09-17T10:43:37.717Z,5.00
2018-09-17T10:46:05.478Z,5.00
2018-09-17T10:48:32.762Z,4.43
2018-09-17T10:51:02.137Z,4.63
2018-09-17T10:53:30.255Z,4.67
2018-09-17T10:55:58.016Z,4.30
2018-09-17T10:58:25.390Z,4.03
2018-09-17T11:00:53.483Z,4.10
2018-09-17T11:03:21.498Z,4.27
2018-09-17T11:05:49.587Z,4.73
2018-09-17T11:08:17.800Z,4.20
2018-09-17T11:10:45.645Z,4.40
2018-09-17T11:13:13.274Z,4.60
2018-09-17T11:16:17.494Z,4.60
2018-09-17T11:18:45.237Z,4.50
2018-09-17T11:21:12.666Z,4.43
2018-09-17T11:23:40.669Z,4.70
2018-09-17T11:26:08.791Z,4.33
2018-09-17T11:28:36.477Z,4.60
2018-09-17T11:31:07.968Z,4.33
2018-09-17T11:33:35.438Z,4.23
2018-09-17T11:36:03.149Z,4.30
2018-09-17T11:38:31.128Z,4.27
2018-09-17T11:40:58.577Z,5.03
2018-09-17T11:43:26.166Z,4.20
2018-09-17T11:45:53.723Z,4.63
2018-09-17T11:48:21.505Z,4.90
2018-09-17T11:50:48.992Z,4.77
2018-09-17T11:53:17.323Z,3.97
2018-09-17T11:55:44.821Z,4.40
2018-09-17T11:58:12.278Z,4.40
2018-09-17T12:00:45.401Z,4.20
2018-09-17T12:03:18.560Z,4.73
2018-09-17T12:05:51.553Z,4.47
2018-09-17T12:08:19.962Z,5.00
2018-09-17T12:10:48.090Z,4.57
2018-09-17T12:13:15.945Z,4.97
2018-09-17T12:15:48.039Z,4.37
2018-09-17T12:18:15.948Z,4.23
2018-09-17T12:20:44.797Z,5.10
2018-09-17T12:23:12.816Z,4.73
2018-09-17T12:25:40.206Z,5.10
2018-09-17T12:28:08.533Z,4.23
2018-09-17T12:33:16.558Z,4.33
2018-09-17T12:35:44.283Z,4.20
2018-09-17T12:38:13.175Z,4.50
2018-09-17T12:40:40.894Z,4.40
2018-09-17T12:43:08.677Z,4.53
2018-09-17T12:45:36.674Z,4.60
2018-09-17T12:48:04.821Z,4.60
2018-09-17T12:50:32.772Z,4.57
2018-09-17T12:53:00.380Z,4.40
2018-09-17T12:55:28.178Z,4.53
2018-09-17T12:57:56.112Z,4.27
2018-09-17T13:00:24.265Z,4.10
2018-09-17T13:02:52.266Z,4.40
2018-09-17T13:05:20.489Z,4.30
2018-09-17T13:07:48.411Z,4.47
2018-09-17T13:10:17.596Z,4.57
2018-09-17T13:12:45.384Z,4.50
2018-09-17T13:15:13.068Z,4.60
2018-09-17T13:17:40.883Z,4.90
2018-09-17T13:20:08.845Z,4.97
2018-09-17T13:22:36.754Z,4.53
2018-09-17T13:25:04.674Z,4.57
2018-09-17T13:27:33.064Z,4.33
2018-09-17T13:30:01.031Z,4.57
2018-09-17T13:32:29.127Z,4.37
2018-09-17T13:34:57.196Z,4.30
2018-09-17T13:37:32.813Z,4.70
2018-09-17T13:40:01.043Z,4.60
2018-09-17T13:42:29.079Z,4.80
2018-09-17T13:44:57.051Z,4.40
2018-09-17T13:47:25.224Z,4.47
2018-09-17T13:49:53.098Z,3.97
2018-09-17T13:52:22.731Z,4.03
2018-09-17T13:54:50.538Z,4.40
2018-09-17T13:57:18.136Z,4.20
2018-09-17T13:59:46.250Z,4.40
2018-09-17T14:02:14.537Z,4.60
2018-09-17T14:04:42.342Z,3.70
2018-09-17T14:07:10.768Z,4.33
2018-09-17T14:09:38.611Z,4.37
2018-09-17T14:12:06.560Z,4.83
2018-09-17T14:14:34.631Z,4.90
2018-09-17T14:17:02.451Z,4.33
2018-09-17T14:19:30.459Z,4.30
2018-09-17T14:21:58.067Z,4.20
2018-09-17T14:24:25.982Z,4.57
2018-09-17T14:26:54.512Z,4.87
2018-09-17T14:29:22.087Z,4.40
2018-09-17T14:31:54.831Z,3.90
2018-09-17T14:34:22.413Z,4.73
2018-09-17T14:36:49.947Z,4.50
2018-09-17T14:39:17.415Z,4.50
2018-09-17T14:41:46.271Z,4.30
2018-09-17T14:44:14.060Z,4.50
2018-09-17T14:46:41.576Z,4.13
2018-09-17T14:49:09.261Z,4.47
2018-09-17T14:51:37.099Z,4.63
2018-09-17T14:54:05.216Z,4.43
2018-09-17T14:56:34.885Z,4.20
2018-09-17T14:59:05.232Z,4.70
2018-09-17T15:01:33.454Z,5.10
2018-09-17T15:04:05.961Z,4.77
2018-09-17T15:06:36.099Z,4.70
2018-09-17T15:09:05.817Z,4.50
2018-09-17T15:11:34.016Z,4.87
2018-09-17T15:14:07.925Z,4.90
2018-09-17T15:16:40.023Z,4.23
2018-09-17T15:19:12.311Z,4.67
2018-09-17T15:21:43.235Z,4.60
2018-09-17T15:24:16.431Z,4.10
2018-09-17T15:26:46.892Z,4.83
2018-09-17T15:29:18.596Z,4.40
2018-09-17T15:31:49.748Z,4.60
2018-09-17T15:34:21.553Z,4.80
2018-09-17T15:36:52.116Z,4.67
2018-09-17T15:39:23.253Z,4.63
2018-09-17T15:41:53.595Z,4.53
2018-09-17T15:44:24.060Z,4.70
2018-09-17T15:46:55.741Z,4.50
2018-09-17T15:49:26.212Z,4.70
2018-09-17T15:51:58.381Z,4.87
2018-09-17T15:54:27.697Z,4.87
2018-09-17T15:56:55.701Z,4.90
2018-09-17T15:59:24.195Z,4.67
2018-09-17T16:01:52.806Z,4.50
2018-09-17T16:04:22.770Z,4.83
2018-09-17T16:06:53.170Z,4.67
2018-09-17T16:09:22.924Z,4.40
2018-09-17T16:11:53.516Z,4.67
2018-09-17T16:14:25.461Z,4.73
2018-09-17T16:16:53.210Z,4.67
2018-09-17T16:19:20.900Z,5.37
2018-09-17T16:21:50.765Z,4.60
2018-09-17T16:24:23.853Z,5.20
2018-09-17T16:27:06.963Z,4.80
2018-09-17T16:29:37.157Z,4.90
2018-09-17T16:32:07.208Z,5.50
2018-09-17T16:34:36.584Z,5.80
2018-09-17T16:37:10.238Z,5.87
2018-09-17T16:39:41.391Z,5.33
2018-09-17T16:42:12.170Z,6.47
2018-09-17T16:44:42.861Z,5.77
2018-09-17T16:47:12.044Z,6.03
2018-09-17T16:49:42.805Z,5.93
2018-09-17T16:52:12.853Z,5.97
2018-09-17T16:54:41.924Z,6.10
2018-09-17T16:57:13.894Z,6.20
2018-09-17T16:59:44.982Z,5.10
2018-09-17T17:02:15.221Z,5.90
2018-09-17T17:04:45.063Z,5.50
2018-09-17T17:07:16.944Z,5.33
2018-09-17T17:09:48.195Z,6.00
2018-09-17T17:12:19.054Z,6.30
2018-09-17T17:14:48.817Z,5.60
2018-09-17T17:17:18.118Z,5.80
2018-09-17T17:19:48.320Z,6.17
2018-09-17T17:22:17.936Z,6.50
2018-09-17T17:24:48.869Z,6.77
2018-09-17T17:27:20.024Z,6.33
2018-09-17T17:29:50.289Z,5.83
2018-09-17T17:32:22.827Z,6.20
2018-09-17T17:34:50.316Z,6.00
2018-09-17T17:37:18.701Z,6.43
2018-09-17T17:39:46.831Z,7.80
2018-09-17T17:42:14.035Z,7.50
2018-09-17T17:44:41.585Z,7.17
2018-09-17T17:47:09.444Z,7.37
2018-09-17T17:49:36.936Z,6.80
2018-09-17T17:52:05.837Z,6.37
2018-09-17T17:54:34.825Z,7.40
2018-09-17T17:57:05.441Z,6.80
2018-09-17T17:59:36.814Z,6.33
2018-09-17T18:02:05.103Z,6.40
2018-09-17T18:04:33.158Z,6.20
2018-09-17T18:07:01.838Z,5.87
2018-09-17T18:09:39.024Z,5.97
2018-09-17T18:12:08.068Z,7.83
2018-09-17T18:14:36.521Z,7.33
2018-09-17T18:17:03.924Z,7.10
2018-09-17T18:19:31.505Z,6.17
2018-09-17T18:21:59.181Z,7.23
2018-09-17T18:24:26.560Z,6.80
2018-09-17T18:26:55.102Z,5.80
2018-09-17T18:29:22.364Z,7.03
2018-09-17T18:31:49.786Z,6.67
2018-09-17T18:34:17.356Z,7.30
2018-09-17T18:36:45.267Z,6.43
2018-09-17T18:39:14.198Z,7.30
2018-09-17T18:41:41.767Z,7.10
2018-09-17T18:44:09.348Z,10.93
2018-09-17T18:46:38.635Z,10.70
2018-09-17T18:49:08.924Z,9.67
2018-09-17T18:51:36.887Z,9.50
2018-09-17T18:54:04.940Z,9.27
2018-09-17T18:56:32.802Z,9.50
2018-09-17T18:59:00.934Z,9.30
2018-09-17T19:01:29.740Z,10.60
2018-09-17T19:03:57.586Z,10.97
2018-09-17T19:06:25.047Z,10.97
2018-09-17T19:08:52.697Z,10.43
2018-09-17T19:11:24.938Z,9.97
2018-09-17T19:13:59.594Z,10.70
2018-09-17T19:16:33.602Z,9.93
2018-09-17T19:19:03.418Z,12.57
2018-09-17T19:21:37.472Z,11.70
2018-09-17T19:24:08.477Z,10.50
2018-09-17T19:26:36.268Z,10.23
2018-09-17T19:29:09.627Z,11.23
2018-09-17T19:31:37.011Z,11.40
2018-09-17T19:34:07.258Z,11.77
2018-09-17T19:36:38.099Z,10.93
2018-09-17T19:39:14.130Z,11.20
2018-09-17T19:41:48.184Z,11.65
2018-09-17T19:44:23.340Z,10.90
2018-09-17T19:46:52.072Z,11.40
2018-09-17T19:49:24.146Z,11.20
2018-09-17T19:51:58.521Z,10.90
2018-09-17T19:54:30.077Z,10.43
2018-09-17T19:57:04.061Z,10.75
2018-09-17T19:59:39.341Z,10.80
2018-09-17T20:02:12.454Z,11.30
2018-09-17T20:04:46.654Z,10.63
2018-09-17T20:07:18.765Z,11.28
2018-09-17T20:09:48.498Z,11.50
2018-09-17T20:12:19.206Z,11.15
2018-09-17T20:14:46.796Z,10.95
2018-09-17T20:17:15.251Z,13.28
2018-09-17T20:19:45.614Z,10.55
2018-09-17T20:22:15.243Z,10.82
2018-09-17T20:24:45.086Z,10.95
2018-09-17T20:27:15.209Z,10.90
2018-09-17T20:29:43.560Z,10.98
2018-09-17T20:32:13.991Z,10.72
2018-09-17T20:34:43.438Z,11.97
2018-09-17T20:37:11.874Z,11.88
2018-09-17T20:39:40.485Z,11.20
2018-09-17T20:42:08.767Z,10.50
2018-09-17T20:44:37.057Z,10.40
2018-09-17T20:47:06.865Z,10.68
2018-09-17T20:49:34.601Z,11.25
2018-09-17T20:52:04.042Z,10.32
2018-09-17T20:54:33.919Z,10.60
2018-09-17T20:57:03.492Z,10.25
2018-09-17T20:59:34.241Z,10.58
2018-09-17T21:02:02.935Z,10.32
2018-09-17T21:04:30.647Z,10.28
2018-09-17T21:06:58.930Z,10.05
2018-09-17T21:09:26.737Z,11.08
2018-09-17T21:11:55.716Z,10.23
2018-09-17T21:14:25.516Z,10.60
2018-09-17T21:16:53.893Z,9.98
2018-09-17T21:19:21.573Z,10.88
2018-09-17T21:21:49.239Z,9.93
2018-09-17T21:24:16.949Z,10.60
2018-09-17T21:26:44.711Z,9.90
2018-09-17T21:29:12.475Z,9.25
2018-09-17T21:31:42.343Z,9.13
2018-09-17T21:34:11.337Z,8.73
2018-09-17T21:36:38.967Z,7.75
2018-09-17T21:39:11.292Z,7.95
2018-09-17T21:41:39.608Z,8.05
2018-09-17T21:44:07.116Z,7.33
2018-09-17T21:46:35.502Z,8.40
2018-09-17T21:49:03.919Z,7.05
2018-09-17T21:51:31.459Z,7.50
2018-09-17T21:53:59.284Z,7.20
2018-09-17T21:56:27.166Z,7.35
2018-09-17T21:58:55.104Z,7.75
2018-09-17T22:01:23.705Z,7.25
2018-09-17T22:03:51.443Z,7.17
2018-09-17T22:06:18.963Z,7.45
2018-09-17T22:08:46.630Z,7.08
2018-09-17T22:11:14.657Z,7.60
2018-09-17T22:13:42.495Z,7.50
2018-09-17T22:16:10.067Z,7.50
2018-09-17T22:18:38.059Z,7.62
2018-09-17T22:21:05.637Z,6.87
2018-09-17T22:23:33.624Z,7.03
2018-09-17T22:26:01.647Z,7.22
2018-09-17T22:28:30.013Z,8.88
2018-09-17T22:30:57.605Z,7.58
2018-09-17T22:33:25.578Z,8.03
2018-09-17T22:35:53.422Z,8.05
2018-09-17T22:38:21.048Z,7.33
2018-09-17T22:40:49.500Z,8.08
2018-09-17T22:43:17.089Z,6.80
2018-09-17T22:45:44.852Z,7.62
2018-09-17T22:48:12.634Z,6.85
2018-09-17T22:50:41.118Z,7.20
2018-09-17T22:53:08.713Z,7.25
2018-09-17T22:55:37.329Z,7.37
2018-09-17T22:58:05.453Z,7.65
2018-09-17T23:00:33.106Z,7.00
2018-09-17T23:03:00.705Z,7.08
2018-09-17T23:05:28.468Z,8.60
2018-09-17T23:07:57.381Z,7.45
2018-09-17T23:10:25.363Z,8.18
2018-09-17T23:12:52.787Z,8.00
2018-09-17T23:15:20.724Z,7.65
2018-09-17T23:17:48.480Z,7.20
2018-09-17T23:20:16.014Z,7.40
2018-09-17T23:22:44.199Z,7.70
2018-09-17T23:25:11.740Z,6.75
2018-09-17T23:27:39.720Z,6.80
2018-09-17T23:30:07.991Z,7.60
2018-09-17T23:32:36.116Z,7.35
2018-09-17T23:35:04.765Z,6.65
2018-09-17T23:37:33.008Z,7.40
2018-09-17T23:40:00.450Z,6.95
2018-09-17T23:42:28.393Z,7.28
2018-09-17T23:44:55.709Z,6.67
2018-09-17T23:47:23.365Z,8.50
2018-09-17T23:49:50.999Z,6.35
2018-09-17T23:52:18.624Z,7.28
2018-09-17T23:54:48.625Z,6.55
2018-09-17T23:57:16.311Z,6.85
2018-09-17T23:59:43.916Z,7.37
